Allen, Washington
Current Conditions -  °F | °C
As of 11:15 PM on Friday 28 Nov 2014 (Local Time) from KBVS Reporting Station
Overcast Overcast  
Wind Chill: 31°   Ceiling: 6500
Heat Index: 37°   Visibility: 10mi
Dew Point: 32°   Wind: 8mph
Humidity: 81%   Direction: 330°NNW
Pressure: 29.53"   Gusts: NA
Location:  48.5689°N, 122.407°W
Report Text: KBVS 290715Z AUTO 33007KT 10SM FEW042 OVC065 03/00 A2953 RMK A01 P000
Loading
Personal Weather Stations






























Interactive Weather Map New forecast layout! Learn more

10-Day Weather Forecast

Advertisements
Track Severe Weather on mobile